Terminal Aerodrome Forecast
Issued by NWS

Home | Current Version | Previous Version | Text Only | Print | Product List | Glossary Off
Versions: 1 2 3 4 5 6 7 8 9 10 11 12 13 14 15 16 17 18

000
FTUS43 KMPX 302342
TAFAXN
TAF
KAXN 302342Z 3100/3124 00000KT P6SM VCSH SCT050 BKN090
     FM310500 13008KT P6SM VCTS BKN060CB
      TEMPO 3106/3108 4SM TSRA OVC045CB
     FM310800 14010KT 6SM -SHRA VCTS SCT035CB OVC050
     FM311000 16008KT P6SM VCSH OVC035
     FM311200 22010KT P6SM BKN050=

USA.gov is the U.S. government's official web portal to all federal, state and local government web resources and services.